sensor_id;sensor_type;location;lat;lon;timestamp;P1;durP1;ratioP1;P2;durP2;ratioP2
44145;SDS011;29809;52.432;4.780;2023-07-20T00:01:33;0.98;;;0.50;;
44145;SDS011;29809;52.432;4.780;2023-07-20T00:03:59;1.13;;;0.60;;
44145;SDS011;29809;52.432;4.780;2023-07-20T00:06:24;0.90;;;0.43;;
44145;SDS011;29809;52.432;4.780;2023-07-20T00:08:52;0.30;;;0.30;;
44145;SDS011;29809;52.432;4.780;2023-07-20T00:11:17;1.05;;;0.38;;
44145;SDS011;29809;52.432;4.780;2023-07-20T00:13:43;0.45;;;0.45;;
44145;SDS011;29809;52.432;4.780;2023-07-20T00:16:08;0.30;;;0.30;;
44145;SDS011;29809;52.432;4.780;2023-07-20T00:18:33;0.50;;;0.50;;
44145;SDS011;29809;52.432;4.780;2023-07-20T00:20:59;1.75;;;0.52;;
44145;SDS011;29809;52.432;4.780;2023-07-20T00:23:25;2.17;;;0.55;;
44145;SDS011;29809;52.432;4.780;2023-07-20T00:25:50;0.93;;;0.70;;
44145;SDS011;29809;52.432;4.780;2023-07-20T00:28:16;0.43;;;0.43;;
44145;SDS011;29809;52.432;4.780;2023-07-20T00:30:41;1.67;;;0.38;;
44145;SDS011;29809;52.432;4.780;2023-07-20T00:33:10;1.27;;;0.50;;
44145;SDS011;29809;52.432;4.780;2023-07-20T00:35:35;0.85;;;0.63;;
44145;SDS011;29809;52.432;4.780;2023-07-20T00:38:01;1.13;;;0.52;;
44145;SDS011;29809;52.432;4.780;2023-07-20T00:40:27;0.90;;;0.43;;
44145;SDS011;29809;52.432;4.780;2023-07-20T00:42:52;0.40;;;0.40;;
44145;SDS011;29809;52.432;4.780;2023-07-20T00:45:17;1.98;;;0.30;;
44145;SDS011;29809;52.432;4.780;2023-07-20T00:47:43;0.82;;;0.68;;
44145;SDS011;29809;52.432;4.780;2023-07-20T00:50:08;1.38;;;0.50;;
44145;SDS011;29809;52.432;4.780;2023-07-20T00:52:34;0.55;;;0.55;;
44145;SDS011;29809;52.432;4.780;2023-07-20T00:55:00;0.50;;;0.50;;
44145;SDS011;29809;52.432;4.780;2023-07-20T00:57:25;0.55;;;0.55;;
44145;SDS011;29809;52.432;4.780;2023-07-20T00:59:51;0.40;;;0.40;;
44145;SDS011;29809;52.432;4.780;2023-07-20T01:02:16;0.60;;;0.60;;
44145;SDS011;29809;52.432;4.780;2023-07-20T01:04:42;0.98;;;0.75;;
44145;SDS011;29809;52.432;4.780;2023-07-20T01:07:11;1.95;;;0.45;;
44145;SDS011;29809;52.432;4.780;2023-07-20T01:14:31;1.55;;;0.63;;
44145;SDS011;29809;52.432;4.780;2023-07-20T01:16:57;0.60;;;0.60;;
44145;SDS011;29809;52.432;4.780;2023-07-20T01:19:22;0.60;;;0.57;;
44145;SDS011;29809;52.432;4.780;2023-07-20T01:21:53;1.05;;;0.50;;
44145;SDS011;29809;52.432;4.780;2023-07-20T01:29:51;0.40;;;0.40;;
44145;SDS011;29809;52.432;4.780;2023-07-20T01:32:20;0.50;;;0.47;;
44145;SDS011;29809;52.432;4.780;2023-07-20T01:34:48;0.82;;;0.40;;
44145;SDS011;29809;52.432;4.780;2023-07-20T01:37:14;0.80;;;0.70;;
44145;SDS011;29809;52.432;4.780;2023-07-20T01:39:41;1.17;;;0.47;;
44145;SDS011;29809;52.432;4.780;2023-07-20T01:42:06;3.58;;;0.40;;
44145;SDS011;29809;52.432;4.780;2023-07-20T01:44:31;0.73;;;0.55;;
44145;SDS011;29809;52.432;4.780;2023-07-20T01:46:57;0.52;;;0.40;;
44145;SDS011;29809;52.432;4.780;2023-07-20T01:49:22;0.75;;;0.40;;
44145;SDS011;29809;52.432;4.780;2023-07-20T01:51:47;0.60;;;0.50;;
44145;SDS011;29809;52.432;4.780;2023-07-20T01:54:12;0.40;;;0.40;;
44145;SDS011;29809;52.432;4.780;2023-07-20T01:56:38;0.40;;;0.38;;
44145;SDS011;29809;52.432;4.780;2023-07-20T01:59:03;0.70;;;0.70;;
44145;SDS011;29809;52.432;4.780;2023-07-20T02:01:28;0.73;;;0.50;;
44145;SDS011;29809;52.432;4.780;2023-07-20T02:03:53;0.63;;;0.50;;
44145;SDS011;29809;52.432;4.780;2023-07-20T02:06:19;0.55;;;0.38;;
44145;SDS011;29809;52.432;4.780;2023-07-20T02:08:44;0.47;;;0.47;;
44145;SDS011;29809;52.432;4.780;2023-07-20T02:11:09;0.35;;;0.30;;
44145;SDS011;29809;52.432;4.780;2023-07-20T02:13:35;0.40;;;0.40;;
44145;SDS011;29809;52.432;4.780;2023-07-20T02:16:00;0.30;;;0.30;;
44145;SDS011;29809;52.432;4.780;2023-07-20T02:18:25;0.40;;;0.40;;
44145;SDS011;29809;52.432;4.780;2023-07-20T02:20:52;0.90;;;0.40;;
44145;SDS011;29809;52.432;4.780;2023-07-20T02:23:17;0.93;;;0.65;;
44145;SDS011;29809;52.432;4.780;2023-07-20T02:25:43;1.55;;;0.73;;
44145;SDS011;29809;52.432;4.780;2023-07-20T02:28:09;0.93;;;0.63;;
44145;SDS011;29809;52.432;4.780;2023-07-20T02:30:37;0.60;;;0.60;;
44145;SDS011;29809;52.432;4.780;2023-07-20T02:33:02;0.57;;;0.57;;
44145;SDS011;29809;52.432;4.780;2023-07-20T02:35:31;1.00;;;0.50;;
44145;SDS011;29809;52.432;4.780;2023-07-20T02:37:57;1.15;;;0.50;;
44145;SDS011;29809;52.432;4.780;2023-07-20T02:40:22;0.98;;;0.80;;
44145;SDS011;29809;52.432;4.780;2023-07-20T02:42:48;0.80;;;0.80;;
44145;SDS011;29809;52.432;4.780;2023-07-20T02:45:13;0.88;;;0.50;;
44145;SDS011;29809;52.432;4.780;2023-07-20T02:47:39;0.82;;;0.55;;
44145;SDS011;29809;52.432;4.780;2023-07-20T02:50:06;0.60;;;0.60;;
44145;SDS011;29809;52.432;4.780;2023-07-20T02:52:31;0.93;;;0.60;;
44145;SDS011;29809;52.432;4.780;2023-07-20T02:54:57;2.60;;;0.63;;
44145;SDS011;29809;52.432;4.780;2023-07-20T02:57:26;0.90;;;0.60;;
44145;SDS011;29809;52.432;4.780;2023-07-20T02:59:52;1.15;;;0.40;;
44145;SDS011;29809;52.432;4.780;2023-07-20T03:02:17;0.60;;;0.52;;
44145;SDS011;29809;52.432;4.780;2023-07-20T03:04:42;0.77;;;0.60;;
44145;SDS011;29809;52.432;4.780;2023-07-20T03:07:07;0.47;;;0.47;;
44145;SDS011;29809;52.432;4.780;2023-07-20T03:09:33;1.55;;;0.50;;
44145;SDS011;29809;52.432;4.780;2023-07-20T03:11:58;1.10;;;0.60;;
44145;SDS011;29809;52.432;4.780;2023-07-20T03:14:23;1.83;;;0.60;;
44145;SDS011;29809;52.432;4.780;2023-07-20T03:16:49;1.48;;;0.70;;
44145;SDS011;29809;52.432;4.780;2023-07-20T03:19:14;1.45;;;0.75;;
44145;SDS011;29809;52.432;4.780;2023-07-20T03:21:42;1.20;;;0.50;;
44145;SDS011;29809;52.432;4.780;2023-07-20T03:24:08;0.40;;;0.40;;
44145;SDS011;29809;52.432;4.780;2023-07-20T03:26:34;1.38;;;0.65;;
44145;SDS011;29809;52.432;4.780;2023-07-20T03:29:00;0.57;;;0.57;;
44145;SDS011;29809;52.432;4.780;2023-07-20T03:31:25;0.65;;;0.65;;
44145;SDS011;29809;52.432;4.780;2023-07-20T03:33:50;0.63;;;0.63;;
44145;SDS011;29809;52.432;4.780;2023-07-20T03:36:15;0.45;;;0.45;;
44145;SDS011;29809;52.432;4.780;2023-07-20T03:38:40;1.95;;;0.50;;
44145;SDS011;29809;52.432;4.780;2023-07-20T03:41:06;2.92;;;0.50;;
44145;SDS011;29809;52.432;4.780;2023-07-20T03:43:31;2.13;;;0.40;;
44145;SDS011;29809;52.432;4.780;2023-07-20T03:45:56;0.68;;;0.50;;
44145;SDS011;29809;52.432;4.780;2023-07-20T03:48:22;0.77;;;0.50;;
44145;SDS011;29809;52.432;4.780;2023-07-20T03:50:48;1.85;;;0.60;;
44145;SDS011;29809;52.432;4.780;2023-07-20T03:53:14;0.40;;;0.40;;
44145;SDS011;29809;52.432;4.780;2023-07-20T03:55:45;0.65;;;0.50;;
44145;SDS011;29809;52.432;4.780;2023-07-20T03:58:11;0.45;;;0.40;;
44145;SDS011;29809;52.432;4.780;2023-07-20T04:00:37;1.48;;;0.50;;
44145;SDS011;29809;52.432;4.780;2023-07-20T04:03:02;1.08;;;0.40;;
44145;SDS011;29809;52.432;4.780;2023-07-20T04:05:27;1.65;;;0.60;;
44145;SDS011;29809;52.432;4.780;2023-07-20T04:07:52;2.25;;;0.55;;
44145;SDS011;29809;52.432;4.780;2023-07-20T04:10:18;0.73;;;0.63;;
44145;SDS011;29809;52.432;4.780;2023-07-20T04:12:44;0.50;;;0.50;;
44145;SDS011;29809;52.432;4.780;2023-07-20T04:15:09;0.50;;;0.50;;
44145;SDS011;29809;52.432;4.780;2023-07-20T04:17:35;1.00;;;0.70;;
44145;SDS011;29809;52.432;4.780;2023-07-20T04:20:00;0.70;;;0.50;;
44145;SDS011;29809;52.432;4.780;2023-07-20T04:22:26;0.73;;;0.40;;
44145;SDS011;29809;52.432;4.780;2023-07-20T04:24:52;0.82;;;0.65;;
44145;SDS011;29809;52.432;4.780;2023-07-20T04:27:17;1.17;;;0.73;;
44145;SDS011;29809;52.432;4.780;2023-07-20T04:29:43;0.63;;;0.57;;
44145;SDS011;29809;52.432;4.780;2023-07-20T04:32:08;1.83;;;0.75;;
44145;SDS011;29809;52.432;4.780;2023-07-20T04:34:34;2.50;;;0.70;;
44145;SDS011;29809;52.432;4.780;2023-07-20T04:37:02;3.78;;;0.93;;
44145;SDS011;29809;52.432;4.780;2023-07-20T04:39:27;1.05;;;0.82;;
44145;SDS011;29809;52.432;4.780;2023-07-20T04:41:52;0.95;;;0.55;;
44145;SDS011;29809;52.432;4.780;2023-07-20T04:44:18;0.52;;;0.50;;
44145;SDS011;29809;52.432;4.780;2023-07-20T04:46:43;1.00;;;0.60;;
44145;SDS011;29809;52.432;4.780;2023-07-20T04:49:08;1.58;;;0.80;;
44145;SDS011;29809;52.432;4.780;2023-07-20T04:51:33;0.80;;;0.47;;
44145;SDS011;29809;52.432;4.780;2023-07-20T04:53:59;1.35;;;0.73;;
44145;SDS011;29809;52.432;4.780;2023-07-20T04:56:24;1.15;;;0.52;;
44145;SDS011;29809;52.432;4.780;2023-07-20T04:58:49;2.03;;;0.70;;
44145;SDS011;29809;52.432;4.780;2023-07-20T05:01:15;1.35;;;0.70;;
44145;SDS011;29809;52.432;4.780;2023-07-20T05:03:40;1.17;;;0.98;;
44145;SDS011;29809;52.432;4.780;2023-07-20T05:06:05;0.55;;;0.55;;
44145;SDS011;29809;52.432;4.780;2023-07-20T05:08:30;1.52;;;0.63;;
44145;SDS011;29809;52.432;4.780;2023-07-20T05:10:56;128.43;;;34.00;;
44145;SDS011;29809;52.432;4.780;2023-07-20T05:13:21;45.83;;;13.27;;
44145;SDS011;29809;52.432;4.780;2023-07-20T05:15:46;34.55;;;11.18;;
44145;SDS011;29809;52.432;4.780;2023-07-20T05:18:11;42.85;;;12.32;;
44145;SDS011;29809;52.432;4.780;2023-07-20T05:20:37;40.60;;;16.00;;
44145;SDS011;29809;52.432;4.780;2023-07-20T05:23:02;36.92;;;13.93;;
44145;SDS011;29809;52.432;4.780;2023-07-20T05:25:28;33.33;;;11.25;;
44145;SDS011;29809;52.432;4.780;2023-07-20T05:27:53;26.67;;;11.00;;
44145;SDS011;29809;52.432;4.780;2023-07-20T05:30:20;28.65;;;9.40;;
44145;SDS011;29809;52.432;4.780;2023-07-20T05:32:45;23.70;;;8.82;;
44145;SDS011;29809;52.432;4.780;2023-07-20T05:35:16;24.50;;;8.82;;
44145;SDS011;29809;52.432;4.780;2023-07-20T05:37:42;17.95;;;6.35;;
44145;SDS011;29809;52.432;4.780;2023-07-20T05:40:07;17.05;;;7.13;;
44145;SDS011;29809;52.432;4.780;2023-07-20T05:42:33;11.88;;;5.82;;
44145;SDS011;29809;52.432;4.780;2023-07-20T05:44:59;12.60;;;5.57;;
44145;SDS011;29809;52.432;4.780;2023-07-20T05:47:24;15.98;;;5.55;;
44145;SDS011;29809;52.432;4.780;2023-07-20T05:49:49;11.00;;;5.28;;
44145;SDS011;29809;52.432;4.780;2023-07-20T05:52:14;12.00;;;5.40;;
44145;SDS011;29809;52.432;4.780;2023-07-20T05:54:40;11.25;;;4.38;;
44145;SDS011;29809;52.432;4.780;2023-07-20T05:57:05;17.02;;;4.32;;
44145;SDS011;29809;52.432;4.780;2023-07-20T05:59:30;14.75;;;3.45;;
44145;SDS011;29809;52.432;4.780;2023-07-20T06:01:56;5.60;;;3.05;;
44145;SDS011;29809;52.432;4.780;2023-07-20T06:04:21;12.68;;;3.03;;
44145;SDS011;29809;52.432;4.780;2023-07-20T06:06:47;7.63;;;2.63;;
44145;SDS011;29809;52.432;4.780;2023-07-20T06:09:12;5.53;;;2.10;;
44145;SDS011;29809;52.432;4.780;2023-07-20T06:11:38;7.10;;;2.28;;
44145;SDS011;29809;52.432;4.780;2023-07-20T06:14:04;4.60;;;2.00;;
44145;SDS011;29809;52.432;4.780;2023-07-20T06:16:29;5.60;;;1.77;;
44145;SDS011;29809;52.432;4.780;2023-07-20T06:18:55;4.72;;;1.95;;
44145;SDS011;29809;52.432;4.780;2023-07-20T06:21:20;3.03;;;1.67;;
44145;SDS011;29809;52.432;4.780;2023-07-20T06:23:45;2.30;;;1.52;;
44145;SDS011;29809;52.432;4.780;2023-07-20T06:26:11;1.63;;;1.50;;
44145;SDS011;29809;52.432;4.780;2023-07-20T06:28:36;3.90;;;1.60;;
44145;SDS011;29809;52.432;4.780;2023-07-20T06:31:02;3.78;;;1.63;;
44145;SDS011;29809;52.432;4.780;2023-07-20T06:33:27;3.30;;;1.50;;
44145;SDS011;29809;52.432;4.780;2023-07-20T06:35:53;2.90;;;1.00;;
44145;SDS011;29809;52.432;4.780;2023-07-20T06:38:22;1.33;;;0.98;;
44145;SDS011;29809;52.432;4.780;2023-07-20T06:40:48;2.03;;;0.98;;
44145;SDS011;29809;52.432;4.780;2023-07-20T06:43:14;1.48;;;0.80;;
44145;SDS011;29809;52.432;4.780;2023-07-20T06:45:39;1.25;;;0.63;;
44145;SDS011;29809;52.432;4.780;2023-07-20T06:48:04;0.80;;;0.65;;
44145;SDS011;29809;52.432;4.780;2023-07-20T06:50:30;1.30;;;0.60;;
44145;SDS011;29809;52.432;4.780;2023-07-20T06:52:55;0.73;;;0.50;;
44145;SDS011;29809;52.432;4.780;2023-07-20T06:55:21;0.80;;;0.80;;
44145;SDS011;29809;52.432;4.780;2023-07-20T06:57:46;1.33;;;0.70;;
44145;SDS011;29809;52.432;4.780;2023-07-20T07:00:11;1.60;;;0.70;;
44145;SDS011;29809;52.432;4.780;2023-07-20T07:02:37;2.55;;;1.20;;
44145;SDS011;29809;52.432;4.780;2023-07-20T07:05:03;0.47;;;0.47;;
44145;SDS011;29809;52.432;4.780;2023-07-20T07:07:28;1.33;;;0.60;;
44145;SDS011;29809;52.432;4.780;2023-07-20T07:09:53;1.40;;;0.65;;
44145;SDS011;29809;52.432;4.780;2023-07-20T07:12:18;1.38;;;0.80;;
44145;SDS011;29809;52.432;4.780;2023-07-20T07:14:44;1.30;;;0.50;;
44145;SDS011;29809;52.432;4.780;2023-07-20T07:17:09;1.20;;;0.57;;
44145;SDS011;29809;52.432;4.780;2023-07-20T07:19:34;1.02;;;0.50;;
44145;SDS011;29809;52.432;4.780;2023-07-20T07:22:01;2.25;;;1.00;;
44145;SDS011;29809;52.432;4.780;2023-07-20T07:24:26;0.75;;;0.60;;
44145;SDS011;29809;52.432;4.780;2023-07-20T07:26:52;2.15;;;0.55;;
44145;SDS011;29809;52.432;4.780;2023-07-20T07:29:18;3.08;;;0.75;;
44145;SDS011;29809;52.432;4.780;2023-07-20T07:31:46;0.98;;;0.50;;
44145;SDS011;29809;52.432;4.780;2023-07-20T07:34:11;1.75;;;0.70;;
44145;SDS011;29809;52.432;4.780;2023-07-20T07:36:37;1.15;;;0.65;;
44145;SDS011;29809;52.432;4.780;2023-07-20T07:39:02;3.28;;;0.98;;
44145;SDS011;29809;52.432;4.780;2023-07-20T07:41:27;2.25;;;0.50;;
44145;SDS011;29809;52.432;4.780;2023-07-20T07:43:52;1.25;;;0.60;;
44145;SDS011;29809;52.432;4.780;2023-07-20T07:46:18;0.50;;;0.50;;
44145;SDS011;29809;52.432;4.780;2023-07-20T07:48:43;0.55;;;0.40;;
44145;SDS011;29809;52.432;4.780;2023-07-20T07:51:08;0.90;;;0.40;;
44145;SDS011;29809;52.432;4.780;2023-07-20T07:53:34;3.13;;;0.50;;
44145;SDS011;29809;52.432;4.780;2023-07-20T07:56:00;0.60;;;0.60;;
44145;SDS011;29809;52.432;4.780;2023-07-20T07:58:25;0.45;;;0.45;;
44145;SDS011;29809;52.432;4.780;2023-07-20T08:00:51;0.57;;;0.30;;
44145;SDS011;29809;52.432;4.780;2023-07-20T08:03:16;0.50;;;0.40;;
44145;SDS011;29809;52.432;4.780;2023-07-20T08:05:41;0.82;;;0.50;;
44145;SDS011;29809;52.432;4.780;2023-07-20T08:08:07;1.27;;;0.32;;
44145;SDS011;29809;52.432;4.780;2023-07-20T08:10:33;1.45;;;0.50;;
44145;SDS011;29809;52.432;4.780;2023-07-20T08:12:59;0.40;;;0.40;;
44145;SDS011;29809;52.432;4.780;2023-07-20T08:15:24;0.38;;;0.38;;
44145;SDS011;29809;52.432;4.780;2023-07-20T08:17:52;0.93;;;0.50;;
44145;SDS011;29809;52.432;4.780;2023-07-20T08:20:18;0.88;;;0.40;;
44145;SDS011;29809;52.432;4.780;2023-07-20T08:22:43;1.48;;;0.60;;
44145;SDS011;29809;52.432;4.780;2023-07-20T08:25:09;2.13;;;0.60;;
44145;SDS011;29809;52.432;4.780;2023-07-20T08:27:34;0.60;;;0.47;;
44145;SDS011;29809;52.432;4.780;2023-07-20T08:30:00;0.63;;;0.60;;
44145;SDS011;29809;52.432;4.780;2023-07-20T08:32:25;0.88;;;0.70;;
44145;SDS011;29809;52.432;4.780;2023-07-20T08:34:51;0.50;;;0.50;;
44145;SDS011;29809;52.432;4.780;2023-07-20T08:37:16;0.95;;;0.60;;
44145;SDS011;29809;52.432;4.780;2023-07-20T08:39:41;1.02;;;0.70;;
44145;SDS011;29809;52.432;4.780;2023-07-20T08:42:06;0.82;;;0.52;;
44145;SDS011;29809;52.432;4.780;2023-07-20T08:44:32;2.70;;;0.80;;
44145;SDS011;29809;52.432;4.780;2023-07-20T08:46:58;0.63;;;0.60;;
44145;SDS011;29809;52.432;4.780;2023-07-20T08:49:25;0.95;;;0.60;;
44145;SDS011;29809;52.432;4.780;2023-07-20T08:51:50;0.80;;;0.43;;
44145;SDS011;29809;52.432;4.780;2023-07-20T08:54:16;3.75;;;0.60;;
44145;SDS011;29809;52.432;4.780;2023-07-20T08:56:42;1.40;;;0.63;;
44145;SDS011;29809;52.432;4.780;2023-07-20T08:59:07;0.60;;;0.60;;
44145;SDS011;29809;52.432;4.780;2023-07-20T09:01:33;1.02;;;0.60;;
44145;SDS011;29809;52.432;4.780;2023-07-20T09:03:59;1.58;;;1.05;;
44145;SDS011;29809;52.432;4.780;2023-07-20T09:06:25;1.65;;;0.70;;
44145;SDS011;29809;52.432;4.780;2023-07-20T09:08:50;0.73;;;0.73;;
44145;SDS011;29809;52.432;4.780;2023-07-20T09:11:16;1.42;;;0.70;;
44145;SDS011;29809;52.432;4.780;2023-07-20T09:13:42;3.10;;;1.05;;
44145;SDS011;29809;52.432;4.780;2023-07-20T09:16:07;1.85;;;1.05;;
44145;SDS011;29809;52.432;4.780;2023-07-20T09:18:32;0.90;;;0.90;;
44145;SDS011;29809;52.432;4.780;2023-07-20T09:21:02;1.30;;;1.10;;
44145;SDS011;29809;52.432;4.780;2023-07-20T09:23:35;1.65;;;1.10;;
44145;SDS011;29809;52.432;4.780;2023-07-20T09:26:01;0.90;;;0.80;;
44145;SDS011;29809;52.432;4.780;2023-07-20T09:28:39;1.33;;;0.80;;
44145;SDS011;29809;52.432;4.780;2023-07-20T09:31:14;0.63;;;0.63;;
44145;SDS011;29809;52.432;4.780;2023-07-20T09:33:40;1.17;;;0.73;;
44145;SDS011;29809;52.432;4.780;2023-07-20T09:36:06;2.03;;;1.17;;
44145;SDS011;29809;52.432;4.780;2023-07-20T09:38:31;2.92;;;0.80;;
44145;SDS011;29809;52.432;4.780;2023-07-20T09:40:56;3.80;;;0.75;;
44145;SDS011;29809;52.432;4.780;2023-07-20T09:43:22;1.23;;;0.90;;
44145;SDS011;29809;52.432;4.780;2023-07-20T09:45:47;1.38;;;0.80;;
44145;SDS011;29809;52.432;4.780;2023-07-20T09:48:12;1.27;;;0.55;;
44145;SDS011;29809;52.432;4.780;2023-07-20T09:50:41;1.10;;;0.45;;
44145;SDS011;29809;52.432;4.780;2023-07-20T09:53:07;0.50;;;0.50;;
44145;SDS011;29809;52.432;4.780;2023-07-20T09:55:33;0.93;;;0.60;;
44145;SDS011;29809;52.432;4.780;2023-07-20T09:57:59;1.55;;;0.60;;
44145;SDS011;29809;52.432;4.780;2023-07-20T10:00:25;1.27;;;0.73;;
44145;SDS011;29809;52.432;4.780;2023-07-20T10:02:51;0.90;;;0.73;;
44145;SDS011;29809;52.432;4.780;2023-07-20T10:05:16;1.58;;;0.60;;
44145;SDS011;29809;52.432;4.780;2023-07-20T10:07:48;0.95;;;0.80;;
44145;SDS011;29809;52.432;4.780;2023-07-20T10:10:15;1.20;;;0.80;;
44145;SDS011;29809;52.432;4.780;2023-07-20T10:12:42;1.75;;;1.17;;
44145;SDS011;29809;52.432;4.780;2023-07-20T10:15:11;0.88;;;0.70;;
44145;SDS011;29809;52.432;4.780;2023-07-20T10:17:43;1.27;;;0.60;;
44145;SDS011;29809;52.432;4.780;2023-07-20T10:20:14;0.60;;;0.60;;
44145;SDS011;29809;52.432;4.780;2023-07-20T10:22:40;0.82;;;0.65;;
44145;SDS011;29809;52.432;4.780;2023-07-20T10:25:06;0.50;;;0.50;;
44145;SDS011;29809;52.432;4.780;2023-07-20T10:27:31;0.90;;;0.80;;
44145;SDS011;29809;52.432;4.780;2023-07-20T10:29:57;1.23;;;0.60;;
44145;SDS011;29809;52.432;4.780;2023-07-20T10:32:24;0.52;;;0.52;;
44145;SDS011;29809;52.432;4.780;2023-07-20T10:34:52;0.82;;;0.60;;
44145;SDS011;29809;52.432;4.780;2023-07-20T10:42:49;0.93;;;0.55;;
44145;SDS011;29809;52.432;4.780;2023-07-20T10:45:15;1.45;;;0.80;;
44145;SDS011;29809;52.432;4.780;2023-07-20T10:47:45;1.17;;;0.75;;
44145;SDS011;29809;52.432;4.780;2023-07-20T10:50:10;2.15;;;0.57;;
44145;SDS011;29809;52.432;4.780;2023-07-20T10:52:37;2.05;;;0.90;;
44145;SDS011;29809;52.432;4.780;2023-07-20T10:55:15;0.55;;;0.50;;
44145;SDS011;29809;52.432;4.780;2023-07-20T10:57:41;2.33;;;0.63;;
44145;SDS011;29809;52.432;4.780;2023-07-20T11:00:07;2.38;;;0.70;;
44145;SDS011;29809;52.432;4.780;2023-07-20T11:02:41;0.32;;;0.32;;
44145;SDS011;29809;52.432;4.780;2023-07-20T11:05:06;0.85;;;0.52;;
44145;SDS011;29809;52.432;4.780;2023-07-20T11:07:38;0.82;;;0.52;;
44145;SDS011;29809;52.432;4.780;2023-07-20T11:10:13;1.85;;;0.70;;
44145;SDS011;29809;52.432;4.780;2023-07-20T11:12:40;1.48;;;0.65;;
44145;SDS011;29809;52.432;4.780;2023-07-20T11:15:05;0.82;;;0.50;;
44145;SDS011;29809;52.432;4.780;2023-07-20T11:17:31;0.82;;;0.60;;
44145;SDS011;29809;52.432;4.780;2023-07-20T11:19:57;0.47;;;0.45;;
44145;SDS011;29809;52.432;4.780;2023-07-20T11:22:22;0.80;;;0.40;;
44145;SDS011;29809;52.432;4.780;2023-07-20T11:24:48;1.10;;;0.65;;
44145;SDS011;29809;52.432;4.780;2023-07-20T11:27:16;1.58;;;0.73;;
44145;SDS011;29809;52.432;4.780;2023-07-20T11:29:45;0.73;;;0.52;;
44145;SDS011;29809;52.432;4.780;2023-07-20T11:32:10;0.73;;;0.70;;
44145;SDS011;29809;52.432;4.780;2023-07-20T11:34:35;1.77;;;0.77;;
44145;SDS011;29809;52.432;4.780;2023-07-20T11:37:01;1.55;;;0.70;;
44145;SDS011;29809;52.432;4.780;2023-07-20T11:39:27;2.78;;;0.60;;
44145;SDS011;29809;52.432;4.780;2023-07-20T11:41:57;0.70;;;0.70;;
44145;SDS011;29809;52.432;4.780;2023-07-20T11:44:23;0.95;;;0.50;;
44145;SDS011;29809;52.432;4.780;2023-07-20T11:46:53;0.65;;;0.60;;
44145;SDS011;29809;52.432;4.780;2023-07-20T11:49:24;1.20;;;0.75;;
44145;SDS011;29809;52.432;4.780;2023-07-20T11:51:50;1.40;;;1.25;;
44145;SDS011;29809;52.432;4.780;2023-07-20T11:54:15;1.23;;;0.73;;
44145;SDS011;29809;52.432;4.780;2023-07-20T11:56:41;0.85;;;0.80;;
44145;SDS011;29809;52.432;4.780;2023-07-20T11:59:06;0.80;;;0.80;;
44145;SDS011;29809;52.432;4.780;2023-07-20T12:01:31;2.42;;;0.85;;
44145;SDS011;29809;52.432;4.780;2023-07-20T12:03:59;1.30;;;0.80;;
44145;SDS011;29809;52.432;4.780;2023-07-20T12:06:24;1.80;;;0.70;;
44145;SDS011;29809;52.432;4.780;2023-07-20T12:08:50;0.52;;;0.52;;
44145;SDS011;29809;52.432;4.780;2023-07-20T12:11:30;1.05;;;0.85;;
44145;SDS011;29809;52.432;4.780;2023-07-20T12:13:57;0.52;;;0.52;;
44145;SDS011;29809;52.432;4.780;2023-07-20T12:16:26;0.65;;;0.60;;
44145;SDS011;29809;52.432;4.780;2023-07-20T12:18:51;0.63;;;0.52;;
44145;SDS011;29809;52.432;4.780;2023-07-20T12:21:23;0.85;;;0.50;;
44145;SDS011;29809;52.432;4.780;2023-07-20T12:23:49;0.68;;;0.60;;
44145;SDS011;29809;52.432;4.780;2023-07-20T12:26:14;0.55;;;0.40;;
44145;SDS011;29809;52.432;4.780;2023-07-20T12:28:40;0.55;;;0.40;;
44145;SDS011;29809;52.432;4.780;2023-07-20T12:31:06;0.52;;;0.50;;
44145;SDS011;29809;52.432;4.780;2023-07-20T12:33:31;1.05;;;0.52;;
44145;SDS011;29809;52.432;4.780;2023-07-20T12:35:57;0.57;;;0.40;;
44145;SDS011;29809;52.432;4.780;2023-07-20T12:38:24;0.70;;;0.40;;
44145;SDS011;29809;52.432;4.780;2023-07-20T12:40:49;0.73;;;0.50;;
44145;SDS011;29809;52.432;4.780;2023-07-20T12:43:14;0.70;;;0.50;;
44145;SDS011;29809;52.432;4.780;2023-07-20T12:45:40;0.50;;;0.50;;
44145;SDS011;29809;52.432;4.780;2023-07-20T12:48:06;0.40;;;0.32;;
44145;SDS011;29809;52.432;4.780;2023-07-20T12:50:31;0.60;;;0.50;;
44145;SDS011;29809;52.432;4.780;2023-07-20T12:52:57;0.50;;;0.50;;
44145;SDS011;29809;52.432;4.780;2023-07-20T12:55:22;0.77;;;0.65;;
44145;SDS011;29809;52.432;4.780;2023-07-20T12:57:47;1.50;;;0.57;;
44145;SDS011;29809;52.432;4.780;2023-07-20T13:00:13;0.57;;;0.50;;
44145;SDS011;29809;52.432;4.780;2023-07-20T13:02:39;0.88;;;0.47;;
44145;SDS011;29809;52.432;4.780;2023-07-20T13:05:04;1.63;;;0.68;;
44145;SDS011;29809;52.432;4.780;2023-07-20T13:07:30;0.65;;;0.50;;
44145;SDS011;29809;52.432;4.780;2023-07-20T13:09:56;0.98;;;0.70;;
44145;SDS011;29809;52.432;4.780;2023-07-20T13:12:22;0.70;;;0.50;;
44145;SDS011;29809;52.432;4.780;2023-07-20T13:14:47;0.50;;;0.30;;
44145;SDS011;29809;52.432;4.780;2023-07-20T13:17:12;1.20;;;0.57;;
44145;SDS011;29809;52.432;4.780;2023-07-20T13:19:38;0.50;;;0.50;;
44145;SDS011;29809;52.432;4.780;2023-07-20T13:22:03;1.45;;;0.40;;
44145;SDS011;29809;52.432;4.780;2023-07-20T13:24:29;0.70;;;0.60;;
44145;SDS011;29809;52.432;4.780;2023-07-20T13:26:54;0.57;;;0.43;;
44145;SDS011;29809;52.432;4.780;2023-07-20T13:29:19;0.40;;;0.40;;
44145;SDS011;29809;52.432;4.780;2023-07-20T13:31:44;0.60;;;0.43;;
44145;SDS011;29809;52.432;4.780;2023-07-20T13:34:10;0.50;;;0.50;;
44145;SDS011;29809;52.432;4.780;2023-07-20T13:36:35;0.60;;;0.60;;
44145;SDS011;29809;52.432;4.780;2023-07-20T13:39:00;1.00;;;0.70;;
44145;SDS011;29809;52.432;4.780;2023-07-20T13:41:25;0.70;;;0.70;;
44145;SDS011;29809;52.432;4.780;2023-07-20T13:43:51;0.70;;;0.50;;
44145;SDS011;29809;52.432;4.780;2023-07-20T13:46:16;0.50;;;0.50;;
44145;SDS011;29809;52.432;4.780;2023-07-20T13:48:41;0.65;;;0.60;;
44145;SDS011;29809;52.432;4.780;2023-07-20T13:51:07;0.75;;;0.50;;
44145;SDS011;29809;52.432;4.780;2023-07-20T13:53:32;1.85;;;0.50;;
44145;SDS011;29809;52.432;4.780;2023-07-20T13:55:57;0.70;;;0.63;;
44145;SDS011;29809;52.432;4.780;2023-07-20T13:58:23;0.88;;;0.57;;
44145;SDS011;29809;52.432;4.780;2023-07-20T14:00:48;1.90;;;0.75;;
44145;SDS011;29809;52.432;4.780;2023-07-20T14:03:13;0.77;;;0.52;;
44145;SDS011;29809;52.432;4.780;2023-07-20T14:05:39;0.65;;;0.60;;
44145;SDS011;29809;52.432;4.780;2023-07-20T14:08:04;2.92;;;1.35;;
44145;SDS011;29809;52.432;4.780;2023-07-20T14:10:30;0.50;;;0.50;;
44145;SDS011;29809;52.432;4.780;2023-07-20T14:12:55;1.02;;;0.57;;
44145;SDS011;29809;52.432;4.780;2023-07-20T14:15:21;0.90;;;0.47;;
44145;SDS011;29809;52.432;4.780;2023-07-20T14:17:46;1.17;;;0.75;;
44145;SDS011;29809;52.432;4.780;2023-07-20T14:20:11;1.00;;;0.85;;
44145;SDS011;29809;52.432;4.780;2023-07-20T14:22:37;0.73;;;0.40;;
44145;SDS011;29809;52.432;4.780;2023-07-20T14:25:02;1.27;;;0.80;;
44145;SDS011;29809;52.432;4.780;2023-07-20T14:27:27;0.55;;;0.30;;
44145;SDS011;29809;52.432;4.780;2023-07-20T14:29:53;0.63;;;0.60;;
44145;SDS011;29809;52.432;4.780;2023-07-20T14:32:18;3.30;;;0.80;;
44145;SDS011;29809;52.432;4.780;2023-07-20T14:34:43;0.85;;;0.50;;
44145;SDS011;29809;52.432;4.780;2023-07-20T14:37:09;0.60;;;0.60;;
44145;SDS011;29809;52.432;4.780;2023-07-20T14:39:34;0.60;;;0.43;;
44145;SDS011;29809;52.432;4.780;2023-07-20T14:42:00;0.93;;;0.60;;
44145;SDS011;29809;52.432;4.780;2023-07-20T14:44:25;1.05;;;0.50;;
44145;SDS011;29809;52.432;4.780;2023-07-20T14:46:50;0.55;;;0.50;;
44145;SDS011;29809;52.432;4.780;2023-07-20T14:49:16;0.85;;;0.50;;
44145;SDS011;29809;52.432;4.780;2023-07-20T14:51:42;0.52;;;0.50;;
44145;SDS011;29809;52.432;4.780;2023-07-20T14:54:11;1.95;;;0.60;;